createdAt,value
2023-01-07T00:03:46.647Z,10.2
2023-01-07T00:33:53.739Z,10.4
2023-01-07T00:43:55.810Z,10.4
2023-01-07T00:53:57.719Z,10.5
2023-01-07T01:34:07.488Z,10.6
2023-01-07T01:44:09.547Z,10.6
2023-01-07T01:54:12.081Z,10.6
2023-01-07T02:04:14.010Z,10.6
2023-01-07T02:14:16.704Z,10.6
2023-01-07T02:24:19.048Z,10.6
2023-01-07T02:34:21.581Z,10.5
2023-01-07T02:44:24.225Z,10.6
2023-01-07T02:54:26.097Z,10.6
2023-01-07T03:14:30.167Z,10.5
2023-01-07T03:24:32.198Z,10.4
2023-01-07T03:34:34.525Z,10.3
2023-01-07T03:44:36.316Z,10.1
2023-01-07T03:54:38.076Z,10
2023-01-07T04:04:40.549Z,9.9
2023-01-07T04:14:42.816Z,9.9
2023-01-07T04:24:44.621Z,9.9
2023-01-07T04:34:47.273Z,9.8
2023-01-07T04:54:51.302Z,9.8
2023-01-07T05:04:53.456Z,9.7
2023-01-07T05:14:55.574Z,9.7
2023-01-07T05:24:57.790Z,9.7
2023-01-07T05:35:00.475Z,9.7
2023-01-07T05:45:02.517Z,9.7
2023-01-07T05:55:05.095Z,9.6
2023-01-07T06:05:07.013Z,9.6
2023-01-07T06:15:09.447Z,9.6
2023-01-07T06:25:11.174Z,9.5
2023-01-07T06:35:13.800Z,9.4
2023-01-07T06:45:16.104Z,9.3
2023-01-07T06:55:17.903Z,9.2
2023-01-07T07:05:19.645Z,9.1
2023-01-07T07:15:21.500Z,9
2023-01-07T07:25:24.004Z,9
2023-01-07T07:35:25.886Z,9.1
2023-01-07T07:45:27.691Z,9.3
2023-01-07T07:55:30.032Z,9.5
2023-01-07T08:05:32.434Z,9.7
2023-01-07T08:15:35.058Z,9.8
2023-01-07T08:25:37.540Z,9.9
2023-01-07T08:35:39.627Z,10
2023-01-07T08:45:41.712Z,10.1
2023-01-07T08:55:43.733Z,10.2
2023-01-07T09:05:45.615Z,10.3
2023-01-07T09:15:47.939Z,10.3
2023-01-07T09:25:49.915Z,10.4
2023-01-07T09:45:54.097Z,10.6
2023-01-07T09:56:10.024Z,10.6
2023-01-07T10:05:58.302Z,10.6
2023-01-07T10:46:07.792Z,10.5
2023-01-07T10:56:09.148Z,10.6
2023-01-07T11:06:11.314Z,10.8
2023-01-07T11:16:13.800Z,11.3
2023-01-07T11:26:15.876Z,11.5
2023-01-07T11:36:18.482Z,11.6
2023-01-07T11:46:22.134Z,11.4
2023-01-07T11:56:22.572Z,11.5
2023-01-07T12:06:24.970Z,11.5
2023-01-07T12:16:26.851Z,11.5
2023-01-07T12:26:28.841Z,11.5
2023-01-07T12:36:31.411Z,11.4
2023-01-07T12:46:33.430Z,11.3
2023-01-07T12:56:35.209Z,11.3
2023-01-07T13:06:37.771Z,11.3
2023-01-07T13:16:40.146Z,11.3
2023-01-07T13:26:42.091Z,11.4
2023-01-07T13:36:44.004Z,11.7
2023-01-07T13:46:46.220Z,11.3
2023-01-07T13:56:48.333Z,11.2
2023-01-07T14:06:50.574Z,11.1
2023-01-07T14:16:52.416Z,11
2023-01-07T14:36:57.184Z,11
2023-01-07T14:46:59.579Z,10.9
2023-01-07T14:57:01.913Z,10.8
2023-01-07T15:17:06.552Z,10.5
2023-01-07T15:37:11.516Z,10.2
2023-01-07T15:47:14.026Z,10.1
2023-01-07T16:17:20.632Z,9.8
2023-01-07T16:27:22.693Z,9.7
2023-01-07T16:37:24.417Z,9.7
2023-01-07T16:57:27.988Z,9.6
2023-01-07T17:07:30.238Z,9.5
2023-01-07T17:17:32.203Z,9.5
2023-01-07T17:27:33.973Z,9.4
2023-01-07T17:57:41.290Z,9.6
2023-01-07T18:07:43.187Z,9.7
2023-01-07T18:17:45.923Z,9.7
2023-01-07T18:37:50.525Z,9.8
2023-01-07T18:57:54.291Z,10
2023-01-07T19:07:56.531Z,10.1
2023-01-07T19:17:58.738Z,10.1
2023-01-07T19:28:01.278Z,10.2
2023-01-07T19:38:03.614Z,10.2
2023-01-07T19:48:05.832Z,10.3
2023-01-07T19:58:07.580Z,10.4
2023-01-07T20:08:10.250Z,10.4
2023-01-07T20:18:12.335Z,10.5
2023-01-07T20:28:14.175Z,10.5
2023-01-07T20:38:16.708Z,10.6
2023-01-07T20:48:19.372Z,10.6
2023-01-07T20:58:29.922Z,10.5
2023-01-07T21:08:32.355Z,10.2
2023-01-07T21:18:34.838Z,10
2023-01-07T21:38:39.207Z,9.9
2023-01-07T21:48:41.407Z,9.8
2023-01-07T22:08:46.146Z,9.8
2023-01-07T22:28:50.360Z,9.8
2023-01-07T22:38:52.724Z,9.8
2023-01-07T22:48:55.292Z,9.8
2023-01-07T23:08:59.425Z,9.8
2023-01-07T23:19:01.315Z,9.9
2023-01-07T23:29:03.872Z,10
2023-01-07T23:39:05.782Z,10.1
2023-01-07T23:49:07.717Z,10.1
2023-01-07T23:59:10.192Z,10.1
